createdAt,value
2022-12-08T00:01:06.578Z,100067.78
2022-12-08T00:03:33.869Z,100065.19
2022-12-08T00:06:21.721Z,100060.91
2022-12-08T00:09:07.355Z,100065.38
2022-12-08T00:11:34.578Z,100056.81
2022-12-08T00:14:01.797Z,100061.94
2022-12-08T00:16:28.897Z,100054.31
2022-12-08T00:18:55.770Z,100062.06
2022-12-08T00:21:22.595Z,100045.13
2022-12-08T00:23:49.480Z,100049.38
2022-12-08T00:26:16.366Z,100049.31
2022-12-08T00:28:43.570Z,100044.19
2022-12-08T00:31:11.940Z,100044.28
2022-12-08T00:33:38.809Z,100040.16
2022-12-08T00:36:07.618Z,100029.16
2022-12-08T00:38:34.408Z,100018.31
2022-12-08T00:41:01.199Z,100023.28
2022-12-08T00:43:28.083Z,100027.56
2022-12-08T00:45:54.920Z,100023.34
2022-12-08T00:48:21.820Z,100034.44
2022-12-08T00:50:48.564Z,100027.59
2022-12-08T00:53:15.398Z,100017.34
2022-12-08T00:55:43.410Z,100025.78
2022-12-08T00:58:10.237Z,100024.94
2022-12-08T01:00:36.924Z,100034.31
2022-12-08T01:03:03.864Z,100033.50
2022-12-08T01:05:30.688Z,100020.84
2022-12-08T01:07:57.481Z,100023.38
2022-12-08T01:10:24.436Z,100033.47
2022-12-08T01:12:51.202Z,100022.28
2022-12-08T01:15:18.035Z,100027.31
2022-12-08T01:17:44.824Z,100023.16
2022-12-08T01:20:12.104Z,100039.22
2022-12-08T01:22:38.967Z,100023.13
2022-12-08T01:25:06.005Z,100034.91
2022-12-08T01:27:32.804Z,100022.16
2022-12-08T01:29:59.642Z,100031.47
2022-12-08T01:32:26.446Z,100025.53
2022-12-08T01:34:53.242Z,100027.97
2022-12-08T01:37:20.127Z,100011.75
2022-12-08T01:39:46.931Z,100017.69
2022-12-08T01:42:23.568Z,100017.69
2022-12-08T01:44:55.845Z,100019.34
2022-12-08T01:47:26.562Z,100011.75
2022-12-08T01:49:53.658Z,100013.41
2022-12-08T01:52:36.970Z,100010.78
2022-12-08T01:55:12.518Z,100007.41
2022-12-08T01:57:47.046Z,99998.94
2022-12-08T02:00:16.765Z,99995.53
2022-12-08T02:02:58.491Z,99991.25
2022-12-08T02:05:28.607Z,99993.75
2022-12-08T02:07:57.563Z,99990.38
2022-12-08T02:10:29.195Z,99987.78
2022-12-08T02:12:59.043Z,99984.41
2022-12-08T02:15:46.177Z,99978.44
2022-12-08T02:18:28.020Z,99969.19
2022-12-08T02:21:02.804Z,99964.16
2022-12-08T02:23:54.519Z,99954.94
2022-12-08T02:27:07.859Z,99959.19
2022-12-08T02:29:59.488Z,99955.00
2022-12-08T02:32:45.723Z,99961.69
2022-12-08T02:35:25.762Z,99958.25
2022-12-08T02:38:08.929Z,99957.41
2022-12-08T02:40:35.605Z,99955.72
2022-12-08T02:43:37.448Z,99955.72
2022-12-08T02:46:31.296Z,99943.88
2022-12-08T02:48:59.323Z,99956.66
2022-12-08T02:51:26.437Z,99952.19
2022-12-08T02:53:53.539Z,99958.31
2022-12-08T02:57:07.836Z,99946.44
2022-12-08T03:00:09.316Z,99948.88
2022-12-08T03:02:50.371Z,99949.00
2022-12-08T03:05:23.363Z,99950.50
2022-12-08T03:08:06.259Z,99945.56
2022-12-08T03:10:43.597Z,99943.88
2022-12-08T03:13:14.918Z,99938.03
2022-12-08T03:15:46.320Z,99929.34
2022-12-08T03:18:16.698Z,99943.81
2022-12-08T03:20:46.798Z,99937.00
2022-12-08T03:23:16.042Z,99930.34
2022-12-08T03:26:09.140Z,99928.56
2022-12-08T03:28:36.002Z,99932.13
2022-12-08T03:31:07.759Z,99928.81
2022-12-08T03:33:40.116Z,99933.94
2022-12-08T03:36:09.844Z,99935.69
2022-12-08T03:38:42.888Z,99933.94
2022-12-08T03:41:19.700Z,99923.78
2022-12-08T03:43:54.459Z,99910.16
2022-12-08T03:48:50.283Z,99921.22
2022-12-08T03:51:17.357Z,99916.88
2022-12-08T03:53:44.448Z,99910.09
2022-12-08T03:56:32.039Z,99909.19
2022-12-08T03:58:59.563Z,99906.63
2022-12-08T04:01:27.555Z,99901.53
2022-12-08T04:03:54.879Z,99904.13
2022-12-08T04:06:22.196Z,99899.06
2022-12-08T04:08:50.277Z,99891.47
2022-12-08T04:11:17.359Z,99884.72
2022-12-08T04:13:44.539Z,99883.78
2022-12-08T04:16:24.116Z,99889.03
2022-12-08T04:18:51.449Z,99878.97
2022-12-08T04:21:18.569Z,99886.56
2022-12-08T04:23:46.289Z,99889.16
2022-12-08T04:26:14.036Z,99891.84
2022-12-08T04:28:40.818Z,99883.28
2022-12-08T04:31:08.152Z,99890.03
2022-12-08T04:33:35.458Z,99879.75
2022-12-08T04:36:04.408Z,99878.06
2022-12-08T04:38:31.538Z,99878.06
2022-12-08T04:40:58.338Z,99865.50
2022-12-08T04:43:25.204Z,99879.91
2022-12-08T04:45:52.121Z,99867.19
2022-12-08T04:48:19.208Z,99871.34
2022-12-08T04:50:46.477Z,99874.06
2022-12-08T04:53:13.682Z,99844.41
2022-12-08T04:55:45.516Z,99870.63
2022-12-08T04:58:14.795Z,99869.69
2022-12-08T05:00:42.438Z,99867.97
2022-12-08T05:03:09.997Z,99864.59
2022-12-08T05:05:36.956Z,99864.75
2022-12-08T05:08:06.139Z,99872.34
2022-12-08T05:10:33.485Z,99864.81
2022-12-08T05:13:00.724Z,99872.56
2022-12-08T05:15:27.727Z,99876.00
2022-12-08T05:17:55.173Z,99864.88
2022-12-08T05:20:22.276Z,99862.22
2022-12-08T05:22:49.235Z,99857.13
2022-12-08T05:25:16.167Z,99855.34
2022-12-08T05:27:43.584Z,99854.50
2022-12-08T05:30:10.485Z,99844.34
2022-12-08T05:32:37.288Z,99860.31
2022-12-08T05:35:04.258Z,99857.78
2022-12-08T05:37:31.082Z,99853.41
2022-12-08T05:39:57.843Z,99855.03
2022-12-08T05:42:25.213Z,99867.72
2022-12-08T05:44:52.537Z,99856.78
2022-12-08T05:47:19.765Z,99864.31
2022-12-08T05:49:46.724Z,99862.53
2022-12-08T05:52:13.443Z,99852.34
2022-12-08T05:54:40.155Z,99850.59
2022-12-08T05:57:07.017Z,99851.53
2022-12-08T05:59:33.884Z,99857.47
2022-12-08T06:02:01.000Z,99846.44
2022-12-08T06:04:28.003Z,99835.50
2022-12-08T06:06:54.883Z,99839.66
2022-12-08T06:16:43.304Z,99834.63
2022-12-08T06:19:10.151Z,99849.19
2022-12-08T06:21:36.946Z,99846.69
2022-12-08T06:24:03.798Z,99849.00
2022-12-08T06:26:30.585Z,99855.03
2022-12-08T06:28:57.356Z,99855.91
2022-12-08T06:31:26.458Z,99853.22
2022-12-08T06:33:55.089Z,99855.78
2022-12-08T06:36:24.674Z,99854.06
2022-12-08T06:38:52.327Z,99858.47
2022-12-08T06:41:19.319Z,99855.78
2022-12-08T06:43:46.313Z,99853.28
2022-12-08T06:46:17.702Z,99857.63
2022-12-08T06:48:44.912Z,99857.59
2022-12-08T06:51:17.913Z,99851.72
2022-12-08T06:53:45.752Z,99866.94
2022-12-08T06:56:14.194Z,99865.94
2022-12-08T06:58:40.952Z,99857.38
2022-12-08T07:01:13.019Z,99864.19
2022-12-08T07:03:41.072Z,99860.81
2022-12-08T07:06:08.196Z,99859.84
2022-12-08T07:08:35.563Z,99858.22
2022-12-08T07:11:18.017Z,99865.00
2022-12-08T07:13:47.836Z,99862.34
2022-12-08T07:16:14.747Z,99864.03
2022-12-08T07:18:43.131Z,99842.94
2022-12-08T07:21:12.430Z,99865.00
2022-12-08T07:23:39.589Z,99874.22
2022-12-08T07:26:08.787Z,99873.47
2022-12-08T07:28:38.718Z,99864.94
2022-12-08T07:31:06.941Z,99868.38
2022-12-08T07:33:36.265Z,99864.97
2022-12-08T07:36:05.425Z,99865.09
2022-12-08T07:38:32.452Z,99860.81
2022-12-08T07:41:00.155Z,99854.06
2022-12-08T07:43:27.117Z,99856.56
2022-12-08T07:45:54.161Z,99856.59
2022-12-08T07:48:21.080Z,99851.41
2022-12-08T07:50:48.007Z,99847.41
2022-12-08T07:53:14.995Z,99843.84
2022-12-08T07:55:43.081Z,99841.28
2022-12-08T07:58:10.832Z,99844.66
2022-12-08T08:00:38.022Z,99854.88
2022-12-08T08:03:04.930Z,99835.41
2022-12-08T08:05:31.868Z,99835.31
2022-12-08T08:07:58.746Z,99839.56
2022-12-08T08:10:25.798Z,99827.63
2022-12-08T08:12:52.674Z,99848.03
2022-12-08T08:15:21.291Z,99836.16
2022-12-08T08:17:53.585Z,99851.22
2022-12-08T08:20:21.385Z,99849.53
2022-12-08T08:22:49.945Z,99851.22
2022-12-08T08:25:18.306Z,99847.94
2022-12-08T08:27:45.546Z,99858.91
2022-12-08T08:30:20.101Z,99865.72
2022-12-08T08:32:47.626Z,99854.56
2022-12-08T08:35:14.711Z,99861.34
2022-12-08T08:37:45.764Z,99855.41
2022-12-08T08:40:15.705Z,99851.84
2022-12-08T08:42:42.546Z,99846.72
2022-12-08T08:45:09.754Z,99855.16
2022-12-08T08:47:36.638Z,99855.13
2022-12-08T08:50:04.319Z,99840.53
2022-12-08T08:52:31.345Z,99841.22
2022-12-08T08:54:58.089Z,99837.56
2022-12-08T08:57:26.054Z,99839.06
2022-12-08T08:59:53.673Z,99837.72
2022-12-08T09:02:21.384Z,99837.94
2022-12-08T09:04:48.532Z,99843.06
2022-12-08T09:07:16.334Z,99839.50
2022-12-08T09:09:43.316Z,99840.09
2022-12-08T09:12:11.145Z,99837.75
2022-12-08T09:14:38.073Z,99824.63
2022-12-08T09:17:05.507Z,99835.13
2022-12-08T09:19:32.489Z,99833.41
2022-12-08T09:21:59.267Z,99833.00
2022-12-08T09:24:26.519Z,99836.28
2022-12-08T09:26:53.558Z,99831.94
